Time;durP1;ratioP1;P1;durP2;ratioP2;P2;SDS_P1;SDS_P2;PMS_P1;PMS_P2;Temp;Humidity;BMP_temperature;BMP_pressure;BME280_temperature;BME280_humidity;BME280_pressure;Samples;Min_cycle;Max_cycle;Signal;HPM_P1;HPM_P2
2022/08/31 00:04:10;;;;;;;6.53;2.33;;;14.00;99.90;;;;;;5087309;28;20074;-95
2022/08/31 00:06:36;;;;;;;6.05;2.58;;;14.00;99.90;;;;;;5091964;28;20163;-96
2022/08/31 00:09:04;;;;;;;8.18;3.00;;;13.90;99.90;;;;;;5080220;28;20291;-94
2022/08/31 00:11:34;;;;;;;5.32;2.97;;;13.90;99.90;;;;;;5078610;28;20064;-93
2022/08/31 00:14:04;;;;;;;7.28;2.60;;;13.90;99.90;;;;;;5083779;28;20024;-94
2022/08/31 00:16:32;;;;;;;6.75;2.63;;;13.90;99.90;;;;;;5086734;28;20039;-94
2022/08/31 00:18:57;;;;;;;6.18;2.70;;;13.90;99.90;;;;;;5083457;28;20020;-96
2022/08/31 00:21:25;;;;;;;6.95;2.70;;;13.90;99.90;;;;;;5087106;28;20431;-95
2022/08/31 00:23:52;;;;;;;8.00;2.72;;;13.90;99.90;;;;;;5088265;28;20032;-94
2022/08/31 00:26:20;;;;;;;5.68;2.92;;;13.90;99.90;;;;;;5084455;28;20029;-93
2022/08/31 00:28:46;;;;;;;6.50;2.70;;;13.90;99.90;;;;;;5086242;28;20028;-96
2022/08/31 00:31:12;;;;;;;5.03;3.08;;;13.80;99.90;;;;;;5089271;28;20154;-95
2022/08/31 00:33:38;;;;;;;4.60;3.20;;;13.80;99.90;;;;;;5086598;28;20070;-94
2022/08/31 00:36:10;;;;;;;13.25;2.85;;;13.80;99.90;;;;;;5083517;28;20032;-96
2022/08/31 00:38:37;;;;;;;8.63;3.00;;;13.80;99.90;;;;;;5083815;28;20025;-95
2022/08/31 00:41:03;;;;;;;6.97;2.58;;;13.70;99.90;;;;;;5079158;28;20100;-94
2022/08/31 00:44:03;;;;;;;7.47;2.90;;;13.70;99.90;;;;;;5078757;28;20017;-94
2022/08/31 00:46:35;;;;;;;5.88;3.13;;;13.70;99.90;;;;;;5080749;28;20039;-93
2022/08/31 00:49:05;;;;;;;6.90;3.38;;;13.60;99.90;;;;;;5081568;28;20024;-96
2022/08/31 00:51:32;;;;;;;;;;;13.60;99.90;;;;;;5082322;28;20024;-96
2022/08/31 00:53:59;;;;;;;5.38;3.30;;;13.60;99.90;;;;;;5081990;28;19912;-96
2022/08/31 00:56:26;;;;;;;8.55;2.97;;;13.60;99.90;;;;;;5080349;28;20082;-95
2022/08/31 00:58:52;;;;;;;8.80;3.50;;;13.60;99.90;;;;;;5084418;28;20024;-95
2022/08/31 01:01:19;;;;;;;6.50;2.95;;;13.60;99.90;;;;;;5081609;28;20024;-96
2022/08/31 01:03:46;;;;;;;6.97;3.65;;;13.50;99.90;;;;;;5085191;28;20016;-96
2022/08/31 01:06:14;;;;;;;6.72;3.40;;;13.50;99.90;;;;;;5084875;28;20032;-95
2022/08/31 01:08:41;;;;;;;6.10;3.33;;;13.50;99.90;;;;;;5086713;28;20024;-96
2022/08/31 01:11:07;;;;;;;5.53;3.42;;;13.50;99.90;;;;;;5084726;28;20142;-95
2022/08/31 01:13:33;;;;;;;6.85;3.83;;;13.50;99.90;;;;;;5081925;28;20033;-94
2022/08/31 01:16:05;;;;;;;10.50;4.18;;;13.50;99.90;;;;;;5085128;28;20044;-94
2022/08/31 01:18:32;;;;;;;8.00;3.40;;;13.50;99.90;;;;;;5083717;28;20025;-93
2022/08/31 01:21:29;;;;;;;9.50;3.70;;;13.60;99.90;;;;;;5077714;28;20028;-94
2022/08/31 01:23:59;;;;;;;5.57;3.67;;;13.50;99.90;;;;;;5080164;28;20021;-94
2022/08/31 01:26:30;;;;;;;9.48;4.07;;;13.60;99.90;;;;;;5079642;28;20376;-95
2022/08/31 01:28:59;;;;;;;;;;;13.60;99.90;;;;;;5086330;28;20044;-94
2022/08/31 01:31:31;;;;;;;8.50;4.38;;;13.60;99.90;;;;;;5085453;28;20093;-95
2022/08/31 01:33:57;;;;;;;7.78;4.28;;;13.60;99.90;;;;;;5082650;28;20020;-96
2022/08/31 01:36:24;;;;;;;8.73;4.68;;;13.60;99.90;;;;;;5084873;28;20090;-94
2022/08/31 01:38:49;;;;;;;10.57;4.88;;;13.60;99.90;;;;;;5086193;28;20047;-94
2022/08/31 01:41:15;;;;;;;8.52;4.15;;;13.60;99.90;;;;;;5089762;28;20056;-91
2022/08/31 01:43:41;;;;;;;12.55;4.80;;;13.60;99.90;;;;;;5089124;28;20070;-94
2022/08/31 01:46:10;;;;;;;9.32;4.05;;;13.60;99.90;;;;;;5084861;28;20049;-95
2022/08/31 01:48:36;;;;;;;9.00;4.70;;;13.60;99.90;;;;;;5082644;28;20044;-96
2022/08/31 01:51:03;;;;;;;6.72;4.43;;;13.60;99.90;;;;;;5082903;28;20082;-93
2022/08/31 01:53:33;;;;;;;9.00;5.40;;;13.60;99.90;;;;;;5093815;28;20047;-93
2022/08/31 01:55:59;;;;;;;14.55;5.20;;;13.60;99.90;;;;;;5084523;28;20062;-95
2022/08/31 01:58:25;;;;;;;7.75;5.20;;;13.60;99.90;;;;;;5089611;28;20025;-93
2022/08/31 02:00:51;;;;;;;10.70;5.35;;;13.60;99.90;;;;;;5087708;28;20035;-92
2022/08/31 02:03:16;;;;;;;10.82;4.53;;;13.60;99.90;;;;;;5079692;28;20017;-94
2022/08/31 02:05:42;;;;;;;10.98;4.90;;;13.60;99.90;;;;;;5087040;28;20024;-94
2022/08/31 02:08:09;;;;;;;8.95;5.45;;;13.60;99.90;;;;;;5080141;28;20039;-94
2022/08/31 02:10:36;;;;;;;11.38;5.53;;;13.60;99.90;;;;;;5092918;28;20062;-95
2022/08/31 02:13:02;;;;;;;12.63;5.50;;;13.60;99.90;;;;;;5088705;28;20033;-95
2022/08/31 02:15:29;;;;;;;7.47;5.00;;;13.60;99.90;;;;;;5083663;28;20037;-96
2022/08/31 02:17:54;;;;;;;10.65;4.68;;;13.60;99.90;;;;;;5094055;28;20076;-94
2022/08/31 02:20:20;;;;;;;7.32;3.90;;;13.60;99.90;;;;;;5095867;28;20036;-96
2022/08/31 02:22:47;;;;;;;9.88;5.43;;;13.60;99.90;;;;;;5095245;28;20043;-94
2022/08/31 02:25:13;;;;;;;6.22;3.83;;;13.60;99.90;;;;;;5091246;28;20044;-94
2022/08/31 02:27:39;;;;;;;8.02;4.43;;;13.60;99.90;;;;;;5074225;28;20012;-93
2022/08/31 02:30:08;;;;;;;7.50;5.22;;;13.70;99.90;;;;;;5083093;28;20054;-95
2022/08/31 02:32:34;;;;;;;24.70;5.30;;;13.60;99.90;;;;;;5087591;28;20040;-95
2022/08/31 02:35:00;;;;;;;7.60;5.10;;;13.60;99.90;;;;;;5079739;28;20082;-94
2022/08/31 02:37:25;;;;;;;8.20;4.75;;;13.60;99.90;;;;;;5092699;28;20056;-95
2022/08/31 02:39:51;;;;;;;10.27;4.90;;;13.60;99.90;;;;;;5096131;28;20021;-95
2022/08/31 02:42:17;;;;;;;8.88;4.45;;;13.60;99.90;;;;;;5090370;28;20025;-94
2022/08/31 02:44:43;;;;;;;7.57;4.40;;;13.70;99.90;;;;;;5089797;28;20131;-93
2022/08/31 02:47:09;;;;;;;14.82;4.70;;;13.70;99.90;;;;;;5092121;28;20032;-93
2022/08/31 02:49:34;;;;;;;6.22;4.18;;;13.70;99.90;;;;;;5091590;28;20082;-95
2022/08/31 02:52:00;;;;;;;9.20;4.13;;;13.70;99.90;;;;;;5091680;28;20072;-92
2022/08/31 02:54:26;;;;;;;8.95;3.85;;;13.70;99.90;;;;;;5086081;28;20040;-95
2022/08/31 02:56:51;;;;;;;8.02;3.75;;;13.70;99.90;;;;;;5079929;28;20028;-94
2022/08/31 02:59:19;;;;;;;10.15;4.35;;;13.70;99.90;;;;;;5078330;28;20063;-93
2022/08/31 03:01:45;;;;;;;6.70;3.13;;;13.70;99.90;;;;;;5081626;28;20509;-95
2022/08/31 03:04:11;;;;;;;8.93;4.13;;;13.70;99.90;;;;;;5076495;28;20029;-95
2022/08/31 03:06:37;;;;;;;8.75;4.55;;;13.70;99.90;;;;;;5075021;28;20036;-94
2022/08/31 03:09:03;;;;;;;9.00;4.20;;;13.60;99.90;;;;;;5077795;28;20081;-95
2022/08/31 03:11:30;;;;;;;5.78;3.67;;;13.70;99.90;;;;;;5082617;28;20045;-94
2022/08/31 03:13:55;;;;;;;9.50;4.15;;;13.60;99.90;;;;;;5087267;28;20009;-96
2022/08/31 03:16:21;;;;;;;9.45;4.38;;;13.60;99.90;;;;;;5089454;28;20127;-95
2022/08/31 03:18:47;;;;;;;12.32;4.85;;;13.70;99.90;;;;;;5094147;28;20012;-92
2022/08/31 03:21:14;;;;;;;11.93;4.45;;;13.70;99.90;;;;;;5096065;28;20056;-93
2022/08/31 03:23:40;;;;;;;10.05;4.45;;;13.70;99.90;;;;;;5089133;28;20034;-96
2022/08/31 03:26:06;;;;;;;9.77;3.65;;;13.70;99.90;;;;;;5080430;28;20032;-95
2022/08/31 03:28:34;;;;;;;8.00;4.07;;;13.70;99.90;;;;;;5084480;28;20150;-96
2022/08/31 03:31:00;;;;;;;11.25;4.00;;;13.70;99.90;;;;;;5081040;28;20028;-95
2022/08/31 03:33:26;;;;;;;9.32;3.85;;;13.70;99.90;;;;;;5083571;28;20028;-96
2022/08/31 03:35:52;;;;;;;10.10;4.63;;;13.70;99.90;;;;;;5088683;28;20036;-96
2022/08/31 03:38:18;;;;;;;9.30;3.78;;;13.70;99.90;;;;;;5088003;28;20025;-95
2022/08/31 03:40:45;;;;;;;14.98;4.30;;;13.70;99.90;;;;;;5081306;28;20036;-96
2022/08/31 03:43:12;;;;;;;9.48;4.35;;;13.70;99.90;;;;;;5089635;28;20027;-96
2022/08/31 03:45:40;;;;;;;12.30;4.60;;;13.60;99.90;;;;;;5091658;28;20024;-95
2022/08/31 03:48:06;;;;;;;8.93;4.07;;;13.70;99.90;;;;;;5084236;28;20036;-96
2022/08/31 03:50:33;;;;;;;11.00;4.05;;;13.60;99.90;;;;;;5095148;28;20040;-92
2022/08/31 03:53:02;;;;;;;10.98;3.80;;;13.60;99.90;;;;;;5094531;28;20122;-94
2022/08/31 03:55:29;;;;;;;8.32;3.80;;;13.60;99.90;;;;;;5089221;28;20115;-93
2022/08/31 03:57:55;;;;;;;7.05;4.20;;;13.60;99.90;;;;;;5085969;28;20044;-94
2022/08/31 04:00:22;;;;;;;10.25;4.70;;;13.60;99.90;;;;;;5082284;28;20025;-96
2022/08/31 04:02:48;;;;;;;8.15;3.67;;;13.60;99.90;;;;;;5084901;28;20025;-94
2022/08/31 04:05:13;;;;;;;9.88;3.03;;;13.50;99.90;;;;;;5088830;28;20055;-95
2022/08/31 04:07:40;;;;;;;6.80;3.70;;;13.50;99.90;;;;;;5079171;28;20075;-96
2022/08/31 04:10:06;;;;;;;9.68;4.10;;;13.50;99.90;;;;;;5084182;28;20025;-96
2022/08/31 04:12:33;;;;;;;8.32;4.15;;;13.50;99.90;;;;;;5085920;28;20101;-95
2022/08/31 04:14:58;;;;;;;8.90;3.95;;;13.40;99.90;;;;;;5084897;28;20032;-95
2022/08/31 04:17:25;;;;;;;10.07;3.80;;;13.40;99.90;;;;;;5086420;28;20511;-95
2022/08/31 04:19:50;;;;;;;6.53;3.70;;;13.40;99.90;;;;;;5092996;28;20051;-92
2022/08/31 04:22:16;;;;;;;11.32;4.40;;;13.30;99.90;;;;;;5095484;28;20020;-92
2022/08/31 04:24:42;;;;;;;13.60;5.75;;;13.30;99.90;;;;;;5095706;28;20033;-94
2022/08/31 04:27:08;;;;;;;11.30;3.97;;;13.30;99.90;;;;;;5085213;28;20070;-93
2022/08/31 04:29:33;;;;;;;5.78;3.58;;;13.30;99.90;;;;;;5079671;28;20035;-96
2022/08/31 04:32:02;;;;;;;6.15;3.78;;;13.30;99.90;;;;;;5090468;28;20021;-96
2022/08/31 04:34:31;;;;;;;8.20;4.00;;;13.30;99.90;;;;;;5086245;28;20057;-96
2022/08/31 04:37:03;;;;;;;10.13;4.43;;;13.30;99.90;;;;;;5092091;28;20021;-96
2022/08/31 04:39:32;;;;;;;8.20;3.42;;;13.30;99.90;;;;;;5088637;28;20076;-96
2022/08/31 04:42:12;;;;;;;5.53;3.72;;;13.30;99.90;;;;;;5077769;28;20053;-96
2022/08/31 04:44:55;;;;;;;13.30;4.05;;;13.30;99.90;;;;;;5095960;28;20084;-94
2022/08/31 04:47:21;;;;;;;11.43;4.10;;;13.30;99.90;;;;;;5079167;28;20033;-95
2022/08/31 04:49:47;;;;;;;9.27;4.13;;;13.30;99.90;;;;;;5078522;28;20031;-96
2022/08/31 04:52:13;;;;;;;12.98;5.03;;;13.30;99.90;;;;;;5079682;28;20825;-95
2022/08/31 04:54:38;;;;;;;9.55;4.40;;;13.30;99.90;;;;;;5083357;28;20036;-94
2022/08/31 04:57:04;;;;;;;10.10;4.30;;;13.30;99.90;;;;;;5078538;28;20024;-94
2022/08/31 04:59:30;;;;;;;8.70;4.28;;;13.30;99.90;;;;;;5081619;28;20032;-94
2022/08/31 05:01:57;;;;;;;6.38;4.20;;;13.30;99.90;;;;;;5087214;28;20537;-96
2022/08/31 05:04:23;;;;;;;8.73;3.67;;;13.30;99.90;;;;;;5083742;28;20477;-95
2022/08/31 05:06:49;;;;;;;14.32;4.50;;;13.30;99.90;;;;;;5094691;28;20028;-95
2022/08/31 05:09:18;;;;;;;12.48;5.10;;;13.30;99.90;;;;;;5091708;28;20024;-93
2022/08/31 05:11:45;;;;;;;9.50;4.70;;;13.30;99.90;;;;;;5077724;28;20063;-95
2022/08/31 05:14:11;;;;;;;9.85;4.60;;;13.30;99.90;;;;;;5081479;28;20222;-95
2022/08/31 05:16:38;;;;;;;11.85;4.20;;;13.40;99.90;;;;;;5087280;28;20037;-94
2022/08/31 05:19:05;;;;;;;9.23;5.05;;;13.40;99.90;;;;;;5091404;28;20025;-94
2022/08/31 05:21:34;;;;;;;13.80;4.53;;;13.40;99.90;;;;;;5091306;28;20029;-96
2022/08/31 05:24:04;;;;;;;5.75;4.00;;;13.40;99.90;;;;;;5095261;28;20020;-96
2022/08/31 05:26:34;;;;;;;10.82;5.22;;;13.40;99.90;;;;;;5082661;28;20017;-95
2022/08/31 05:29:01;;;;;;;12.20;5.60;;;13.40;99.90;;;;;;5091525;28;20025;-96
2022/08/31 05:31:28;;;;;;;12.52;5.68;;;13.40;99.90;;;;;;5083825;28;20029;-93
2022/08/31 05:33:55;;;;;;;8.05;4.90;;;13.40;99.90;;;;;;5092890;28;20027;-95
2022/08/31 05:36:22;;;;;;;9.35;4.85;;;13.40;99.90;;;;;;5097153;28;20021;-94
2022/08/31 05:38:47;;;;;;;7.82;5.00;;;13.40;99.90;;;;;;5087530;28;20538;-92
2022/08/31 05:41:13;;;;;;;10.95;5.18;;;13.40;99.90;;;;;;5087056;28;20099;-95
2022/08/31 05:43:40;;;;;;;11.35;5.38;;;13.40;99.90;;;;;;5073758;28;20017;-92
2022/08/31 05:46:10;;;;;;;9.77;5.90;;;13.40;99.90;;;;;;5092340;28;20048;-96
2022/08/31 05:48:37;;;;;;;7.57;5.15;;;13.40;99.90;;;;;;5086114;28;20035;-93
2022/08/31 05:51:04;;;;;;;7.57;4.95;;;13.30;99.90;;;;;;5089281;28;20041;-95
2022/08/31 05:53:30;;;;;;;9.73;4.75;;;13.30;99.90;;;;;;5087842;28;20174;-94
2022/08/31 05:56:01;;;;;;;9.00;5.00;;;13.30;99.90;;;;;;5092478;28;20033;-94
2022/08/31 05:58:27;;;;;;;9.82;5.18;;;13.30;99.90;;;;;;5090521;28;20047;-94
2022/08/31 06:00:53;;;;;;;10.75;5.25;;;13.40;99.90;;;;;;5095643;28;20054;-94
2022/08/31 06:03:19;;;;;;;7.57;4.18;;;13.40;99.90;;;;;;5091505;28;20123;-95
2022/08/31 06:05:45;;;;;;;10.10;5.55;;;13.40;99.90;;;;;;5084363;28;20043;-96
2022/08/31 06:08:10;;;;;;;9.38;5.03;;;13.40;99.90;;;;;;5087824;28;20033;-94
2022/08/31 06:10:36;;;;;;;12.15;5.78;;;13.50;99.90;;;;;;5083184;28;20426;-96
2022/08/31 06:13:03;;;;;;;11.07;5.60;;;13.50;99.90;;;;;;5088181;28;20052;-96
2022/08/31 06:15:29;;;;;;;10.98;5.93;;;13.50;99.90;;;;;;5080056;28;20044;-93
2022/08/31 06:17:54;;;;;;;12.55;6.28;;;13.50;99.90;;;;;;5077666;28;20021;-91
2022/08/31 06:20:20;;;;;;;10.38;5.78;;;13.60;99.90;;;;;;5076330;28;20055;-93
2022/08/31 06:22:49;;;;;;;12.43;5.93;;;13.60;99.90;;;;;;5062501;28;20104;-94
2022/08/31 06:25:18;;;;;;;14.63;6.35;;;13.60;99.90;;;;;;5080302;28;20056;-94
2022/08/31 06:27:49;;;;;;;15.98;6.93;;;13.60;99.90;;;;;;5061829;28;20036;-93
2022/08/31 06:30:18;;;;;;;12.68;6.60;;;13.60;99.90;;;;;;5078717;28;20089;-94
2022/08/31 06:32:47;;;;;;;12.38;5.53;;;13.70;99.90;;;;;;5090480;28;20020;-93
2022/08/31 06:35:13;;;;;;;11.27;6.10;;;13.70;99.90;;;;;;5095691;28;20048;-91
2022/08/31 06:37:39;;;;;;;12.20;6.40;;;13.70;99.90;;;;;;5087254;28;20021;-93
2022/08/31 06:40:05;;;;;;;9.38;4.60;;;13.80;99.90;;;;;;5078275;28;20025;-93
2022/08/31 06:42:31;;;;;;;15.85;6.35;;;13.80;99.90;;;;;;5081169;28;20020;-93
2022/08/31 06:44:57;;;;;;;14.88;6.60;;;13.80;99.90;;;;;;5081097;28;20137;-92
2022/08/31 06:47:24;;;;;;;13.13;6.07;;;13.80;99.90;;;;;;5078975;28;20032;-93
2022/08/31 06:49:50;;;;;;;15.50;6.72;;;13.80;99.90;;;;;;5075780;28;20039;-94
2022/08/31 06:52:16;;;;;;;8.32;5.43;;;13.80;99.90;;;;;;5081521;28;20024;-93
2022/08/31 06:54:42;;;;;;;13.35;5.97;;;13.90;99.90;;;;;;5083935;28;20047;-93
2022/08/31 06:57:08;;;;;;;11.20;5.90;;;13.90;99.90;;;;;;5081667;28;20024;-95
2022/08/31 06:59:33;;;;;;;9.20;4.93;;;13.90;99.90;;;;;;5100211;28;20039;-92
2022/08/31 07:02:00;;;;;;;11.40;5.55;;;13.90;99.90;;;;;;5082750;28;20075;-92
2022/08/31 07:04:30;;;;;;;10.20;6.05;;;13.90;99.90;;;;;;5077869;28;20016;-94
2022/08/31 07:06:58;;;;;;;14.52;6.38;;;13.90;99.90;;;;;;5075623;28;20024;-95
2022/08/31 07:09:23;;;;;;;16.15;5.75;;;13.90;99.90;;;;;;5075795;28;20078;-92
2022/08/31 07:11:52;;;;;;;15.35;6.35;;;14.00;99.90;;;;;;5074794;28;20048;-95
2022/08/31 07:14:21;;;;;;;12.90;6.68;;;14.00;99.90;;;;;;5076357;28;20028;-93
2022/08/31 07:16:47;;;;;;;11.13;5.38;;;14.00;99.90;;;;;;5074932;28;20050;-93
2022/08/31 07:19:13;;;;;;;13.18;5.97;;;14.00;99.90;;;;;;5075570;28;20023;-94
2022/08/31 07:21:48;;;;;;;17.52;6.43;;;14.10;99.90;;;;;;5075083;28;20021;-93
2022/08/31 07:24:21;;;;;;;14.88;6.20;;;14.10;99.90;;;;;;5073958;28;20024;-94
2022/08/31 07:26:53;;;;;;;13.18;5.78;;;14.20;99.90;;;;;;5083627;28;20081;-93
2022/08/31 07:29:21;;;;;;;14.57;6.40;;;14.30;99.90;;;;;;5075657;28;20052;-93
2022/08/31 07:31:47;;;;;;;10.98;6.43;;;14.30;99.90;;;;;;5074902;28;20108;-94
2022/08/31 07:34:20;;;;;;;12.77;6.40;;;14.40;99.90;;;;;;5074042;28;20105;-93
2022/08/31 07:43:14;;;;;;;10.70;4.97;;;14.60;99.90;;;;;;5071006;22;20055;-96
2022/08/31 07:45:40;;;;;;;13.60;5.68;;;14.60;99.90;;;;;;5047549;28;20033;-94
2022/08/31 07:48:07;;;;;;;13.82;6.28;;;14.70;99.90;;;;;;5047199;28;20027;-93
2022/08/31 07:50:37;;;;;;;12.65;5.63;;;14.80;99.90;;;;;;5046459;28;20334;-93
2022/08/31 07:53:07;;;;;;;13.17;5.73;;;14.90;99.90;;;;;;5050538;28;20016;-94
2022/08/31 07:55:34;;;;;;;18.60;5.95;;;14.90;99.90;;;;;;5041039;28;20330;-95
2022/08/31 07:58:02;;;;;;;12.93;5.53;;;15.00;99.90;;;;;;5038359;28;20025;-95
2022/08/31 08:00:31;;;;;;;10.82;5.68;;;15.00;99.90;;;;;;5038685;28;20029;-95
2022/08/31 08:03:06;;;;;;;11.57;5.80;;;15.00;99.90;;;;;;5038384;28;20025;-95
2022/08/31 08:05:37;;;;;;;11.98;5.47;;;15.00;99.90;;;;;;5038256;28;20029;-95
2022/08/31 08:08:07;;;;;;;10.15;5.68;;;15.10;99.90;;;;;;5057951;28;20040;-95
2022/08/31 08:10:40;;;;;;;16.75;5.85;;;15.10;99.90;;;;;;5043086;28;20029;-94
2022/08/31 08:13:06;;;;;;;11.40;5.45;;;15.10;99.90;;;;;;5054645;28;20073;-95
2022/08/31 08:15:33;;;;;;;14.32;5.85;;;15.10;99.90;;;;;;5051204;28;20474;-94
2022/08/31 08:17:59;;;;;;;11.93;4.72;;;15.20;99.90;;;;;;5056975;28;20029;-94
2022/08/31 08:20:26;;;;;;;12.98;6.13;;;15.20;99.90;;;;;;5056219;28;20055;-93
2022/08/31 08:22:52;;;;;;;9.25;4.60;;;15.30;99.90;;;;;;5064195;28;20119;-94
2022/08/31 08:25:18;;;;;;;16.17;5.03;;;15.50;99.90;;;;;;5056205;28;20363;-94
2022/08/31 08:27:44;;;;;;;9.30;4.72;;;15.70;99.90;;;;;;5060007;28;20024;-95
2022/08/31 08:30:14;;;;;;;16.10;4.85;;;15.80;99.90;;;;;;5057639;28;20041;-95
2022/08/31 08:32:43;;;;;;;9.53;4.33;;;15.90;99.90;;;;;;5056996;28;20437;-94
2022/08/31 08:35:09;;;;;;;9.57;4.50;;;16.00;99.90;;;;;;5059354;28;20043;-90
2022/08/31 08:37:38;;;;;;;12.50;4.30;;;16.10;99.90;;;;;;5062505;28;20029;-93
2022/08/31 08:40:05;;;;;;;9.70;5.30;;;16.10;99.90;;;;;;5061231;28;20024;-94
2022/08/31 08:42:31;;;;;;;12.48;4.10;;;16.20;99.90;;;;;;5061860;28;20062;-94
2022/08/31 08:44:57;;;;;;;11.50;4.35;;;16.30;99.90;;;;;;5064076;28;20048;-95
2022/08/31 08:47:27;;;;;;;7.70;3.78;;;16.30;99.90;;;;;;5061290;28;20021;-95
2022/08/31 08:49:55;;;;;;;13.47;4.37;;;16.40;99.90;;;;;;5062222;28;20027;-94
2022/08/31 08:52:30;;;;;;;12.48;4.13;;;16.50;99.90;;;;;;5062108;28;20033;-94
2022/08/31 08:55:03;;;;;;;11.07;4.25;;;16.50;99.90;;;;;;5061071;28;20489;-93
2022/08/31 08:57:34;;;;;;;7.70;4.07;;;16.70;99.90;;;;;;5066342;28;20497;-95
2022/08/31 09:00:09;;;;;;;5.65;3.85;;;16.70;99.90;;;;;;5066473;28;20028;-95
2022/08/31 09:02:59;;;;;;;12.85;3.58;;;16.80;99.90;;;;;;5076448;28;20020;-95
2022/08/31 09:05:49;;;;;;;10.95;3.38;;;17.10;99.90;;;;;;5073409;28;20020;-93
2022/08/31 09:08:33;;;;;;;14.38;3.88;;;17.20;99.90;;;;;;5072831;28;20052;-94
2022/08/31 09:11:06;;;;;;;7.93;2.50;;;17.40;99.90;;;;;;5066633;28;20086;-94
2022/08/31 09:14:05;;;;;;;10.07;2.50;;;17.50;99.90;;;;;;5069446;28;20141;-93
2022/08/31 09:17:00;;;;;;;6.40;2.72;;;17.70;99.90;;;;;;4970453;28;20075;-94
2022/08/31 09:19:26;;;;;;;6.72;2.60;;;17.80;99.90;;;;;;4964741;28;20023;-93
2022/08/31 09:21:55;;;;;;;9.00;2.55;;;18.00;99.90;;;;;;4963916;28;20038;-95
2022/08/31 09:24:27;;;;;;;6.90;1.90;;;18.20;99.90;;;;;;4966839;28;20027;-95
2022/08/31 09:27:17;;;;;;;6.13;2.10;;;18.30;99.90;;;;;;4984424;28;20034;-95
2022/08/31 09:29:54;;;;;;;7.95;2.05;;;18.50;99.90;;;;;;4966074;28;20022;-94
2022/08/31 09:32:30;;;;;;;4.50;1.70;;;18.70;99.90;;;;;;4964844;28;20030;-94
2022/08/31 09:35:22;;;;;;;10.70;1.95;;;18.70;99.90;;;;;;4965791;28;20114;-94
2022/08/31 09:37:59;;;;;;;6.80;1.60;;;18.90;99.90;;;;;;4966345;28;20027;-94
2022/08/31 09:40:51;;;;;;;5.07;1.70;;;19.00;99.90;;;;;;4966780;28;20062;-95
2022/08/31 09:43:28;;;;;;;7.95;1.60;;;19.20;99.90;;;;;;4972221;28;20069;-94
2022/08/31 09:46:29;;;;;;;6.47;2.33;;;19.50;99.90;;;;;;4976779;28;20059;-95
2022/08/31 09:48:57;;;;;;;7.22;1.77;;;19.70;99.90;;;;;;4968849;28;20031;-95
2022/08/31 09:51:33;;;;;;;6.15;2.22;;;19.90;99.90;;;;;;4981306;28;20021;-92
2022/08/31 09:57:01;;;;;;;7.53;1.73;;;20.20;99.90;;;;;;5071631;28;20090;-96
2022/08/31 09:59:38;;;;;;;4.68;1.45;;;20.20;98.50;;;;;;5063176;28;20016;-95
2022/08/31 10:02:36;;;;;;;6.07;1.67;;;20.10;97.50;;;;;;5061214;28;20032;-95
2022/08/31 10:05:06;;;;;;;5.63;1.80;;;20.00;96.90;;;;;;5064920;28;20021;-95
2022/08/31 10:07:56;;;;;;;7.03;1.88;;;20.00;96.60;;;;;;5066982;28;20411;-94
2022/08/31 10:10:24;;;;;;;5.53;1.88;;;20.10;96.20;;;;;;5071020;28;20048;-95
2022/08/31 10:13:09;;;;;;;9.40;2.55;;;20.00;95.70;;;;;;5067590;28;20036;-95
2022/08/31 10:15:41;;;;;;;6.63;1.90;;;19.90;95.60;;;;;;5063830;28;20478;-95
2022/08/31 10:18:38;;;;;;;9.55;2.03;;;19.80;95.70;;;;;;5065667;28;20047;-96
2022/08/31 10:21:22;;;;;;;7.90;1.90;;;20.00;95.50;;;;;;5067596;28;20033;-95
2022/08/31 10:24:19;;;;;;;5.43;1.90;;;20.10;95.10;;;;;;5068836;28;20048;-96
2022/08/31 10:26:52;;;;;;;7.45;1.60;;;20.50;93.60;;;;;;5063663;28;20024;-96
2022/08/31 10:29:43;;;;;;;4.78;1.85;;;20.70;92.50;;;;;;5068569;28;20020;-96
2022/08/31 10:32:29;;;;;;;6.85;1.88;;;20.90;90.90;;;;;;5067508;28;20021;-94
2022/08/31 10:35:08;;;;;;;3.90;1.88;;;20.80;90.00;;;;;;5062913;28;20124;-96
2022/08/31 10:37:48;;;;;;;5.00;1.55;;;20.90;89.80;;;;;;5065151;28;20120;-95
2022/08/31 10:40:37;;;;;;;8.68;1.63;;;20.90;88.50;;;;;;5062097;28;20028;-95
2022/08/31 10:43:22;;;;;;;4.55;1.95;;;21.00;88.20;;;;;;5064198;28;20048;-95
2022/08/31 10:45:51;;;;;;;6.95;2.20;;;21.00;88.30;;;;;;5062220;28;20493;-96
2022/08/31 10:48:24;;;;;;;9.60;2.88;;;21.00;88.30;;;;;;5063822;28;20025;-94
2022/08/31 10:51:26;;;;;;;6.38;2.55;;;20.80;87.80;;;;;;5060351;28;20052;-96
2022/08/31 10:54:11;;;;;;;6.93;1.77;;;20.80;88.00;;;;;;5025446;28;20171;-95
2022/08/31 10:57:04;;;;;;;8.20;2.10;;;20.80;88.10;;;;;;5062554;28;20432;-95
2022/08/31 10:59:41;;;;;;;4.32;2.00;;;20.80;87.70;;;;;;5057984;28;20024;-95
2022/08/31 11:02:16;;;;;;;4.68;2.08;;;20.90;87.40;;;;;;5058875;28;20025;-95
2022/08/31 11:05:09;;;;;;;8.75;1.98;;;21.10;87.00;;;;;;5069653;28;20047;-95
2022/08/31 11:07:41;;;;;;;6.95;1.90;;;21.40;86.00;;;;;;5074577;28;20029;-95
2022/08/31 11:10:12;;;;;;;5.45;1.63;;;21.80;85.20;;;;;;5066568;28;20494;-95
2022/08/31 11:12:43;;;;;;;4.60;1.40;;;22.10;83.80;;;;;;5065037;28;20031;-96
2022/08/31 11:15:43;;;;;;;5.90;1.25;;;22.30;82.20;;;;;;5069458;28;20036;-95
2022/08/31 11:18:38;;;;;;;4.53;1.55;;;22.20;80.00;;;;;;5066403;28;20028;-96
2022/08/31 11:21:35;;;;;;;4.75;1.50;;;22.00;79.50;;;;;;5062778;28;20024;-94
2022/08/31 11:24:18;;;;;;;5.97;1.75;;;21.90;79.00;;;;;;5067931;28;20037;-94
2022/08/31 11:27:16;;;;;;;3.55;1.25;;;22.10;78.60;;;;;;5068354;28;20044;-94
2022/08/31 11:30:03;;;;;;;2.67;1.30;;;22.40;77.00;;;;;;5070790;28;20059;-94
2022/08/31 11:32:36;;;;;;;2.00;1.10;;;22.60;75.40;;;;;;5070105;28;20062;-95
2022/08/31 11:35:09;;;;;;;1.75;1.20;;;22.70;73.60;;;;;;5067729;28;20033;-95
2022/08/31 11:37:49;;;;;;;5.30;1.27;;;22.50;72.70;;;;;;5050775;28;20061;-94
2022/08/31 11:40:40;;;;;;;2.63;1.17;;;22.20;72.30;;;;;;5065810;28;20044;-95
2022/08/31 11:43:32;;;;;;;7.65;1.90;;;22.00;72.70;;;;;;5065359;28;20048;-95
2022/08/31 11:46:26;;;;;;;5.07;1.27;;;21.90;73.00;;;;;;5049755;28;20036;-94
2022/08/31 11:48:52;;;;;;;2.15;1.10;;;21.70;73.10;;;;;;5062410;28;20024;-95
2022/08/31 11:51:31;;;;;;;2.15;1.23;;;21.60;73.20;;;;;;5066358;28;20518;-95
2022/08/31 11:53:59;;;;;;;6.45;1.42;;;21.40;73.10;;;;;;5061759;28;20478;-95
2022/08/31 11:56:36;;;;;;;3.95;1.08;;;21.60;73.20;;;;;;5065557;28;20040;-95
2022/08/31 11:59:40;;;;;;;3.13;1.25;;;22.00;72.00;;;;;;5062964;28;20020;-94
2022/08/31 12:02:24;;;;;;;3.65;1.20;;;22.60;69.60;;;;;;4963762;28;20088;-92
2022/08/31 12:04:56;;;;;;;4.38;1.42;;;23.10;68.10;;;;;;4965958;28;20045;-95
2022/08/31 12:07:27;;;;;;;5.97;1.30;;;23.50;66.80;;;;;;4962375;28;20027;-93
2022/08/31 12:10:06;;;;;;;5.40;1.58;;;23.80;65.10;;;;;;4965566;28;20031;-94
2022/08/31 12:12:55;;;;;;;2.72;1.05;;;23.70;64.00;;;;;;4962492;28;20047;-93
2022/08/31 12:15:39;;;;;;;4.95;1.30;;;23.50;63.90;;;;;;4968099;28;20055;-95
2022/08/31 12:18:32;;;;;;;2.35;1.33;;;23.60;63.80;;;;;;4962232;28;20559;-94
2022/08/31 12:24:39;;;;;;;4.85;1.48;;;24.10;61.80;;;;;;4983610;28;20038;-94
2022/08/31 12:27:43;;;;;;;1.73;1.10;;;24.50;61.30;;;;;;4970836;28;20042;-94
2022/08/31 12:30:24;;;;;;;2.28;1.10;;;24.90;60.00;;;;;;4988526;28;20042;-94
2022/08/31 12:33:16;;;;;;;2.08;1.30;;;25.00;59.10;;;;;;4979580;28;20056;-93
2022/08/31 12:35:45;;;;;;;3.17;1.00;;;24.80;58.20;;;;;;5003630;28;20048;-94
2022/08/31 12:38:18;;;;;;;4.63;1.30;;;24.50;58.10;;;;;;5068172;28;20039;-94
2022/08/31 12:40:54;;;;;;;2.33;1.15;;;24.20;58.20;;;;;;5065170;28;20025;-95
2022/08/31 12:43:30;;;;;;;4.45;1.80;;;23.90;58.40;;;;;;5064633;28;20082;-94
2022/08/31 12:46:33;;;;;;;1.77;1.00;;;23.90;58.80;;;;;;5063192;28;20020;-93
2022/08/31 12:49:35;;;;;;;3.28;1.10;;;23.70;58.30;;;;;;5063857;28;20065;-96
2022/08/31 12:52:01;;;;;;;3.15;1.20;;;23.60;58.50;;;;;;5062178;28;20033;-95
2022/08/31 12:54:46;;;;;;;4.57;1.17;;;23.70;58.10;;;;;;5063545;28;20024;-94
2022/08/31 12:57:41;;;;;;;4.95;1.20;;;23.90;57.70;;;;;;5061016;28;20075;-95
2022/08/31 13:00:18;;;;;;;2.35;1.10;;;24.30;57.50;;;;;;5065906;28;20096;-94
2022/08/31 13:02:48;;;;;;;2.08;0.90;;;24.60;56.90;;;;;;5064404;28;20020;-94
2022/08/31 13:05:35;;;;;;;4.73;1.27;;;24.90;56.10;;;;;;5065729;28;20355;-95
2022/08/31 13:08:22;;;;;;;4.40;1.00;;;25.20;55.70;;;;;;5065913;28;20052;-94
2022/08/31 13:10:48;;;;;;;2.80;1.25;;;25.10;55.30;;;;;;5068481;28;20039;-94
2022/08/31 13:13:31;;;;;;;4.18;1.55;;;25.10;55.40;;;;;;5073685;28;20024;-93
2022/08/31 13:15:59;;;;;;;3.08;1.33;;;25.30;55.50;;;;;;5078176;28;20029;-93
2022/08/31 13:18:29;;;;;;;2.50;1.20;;;25.60;55.00;;;;;;5066164;28;20020;-95
2022/08/31 13:21:02;;;;;;;3.88;1.05;;;25.90;54.40;;;;;;5065530;28;20021;-96
2022/08/31 13:23:38;;;;;;;3.80;1.35;;;26.20;53.70;;;;;;5072453;28;20025;-95